TimeCDT,TemperatureF,Dew PointF,Humidity,Sea Level PressureIn,VisibilityMPH,Wind Direction,Wind SpeedMPH,Gust SpeedMPH,PrecipitationIn,Events,Conditions,WindDirDegrees,DateUTC
12:15 AM,23.7,16.7,75,30.26,10.0,Calm,Calm,-,N/A,,Clear,0,2014-03-26 05:15:00
12:35 AM,22.6,16.0,76,30.27,10.0,Calm,Calm,-,N/A,,Clear,0,2014-03-26 05:35:00
12:55 AM,23.9,16.0,72,30.27,10.0,Calm,Calm,-,N/A,,Clear,0,2014-03-26 05:55:00
1:15 AM,23.2,15.8,73,30.27,10.0,Calm,Calm,-,N/A,,Clear,0,2014-03-26 06:15:00
1:35 AM,21.6,15.1,76,30.27,10.0,Calm,Calm,-,N/A,,Clear,0,2014-03-26 06:35:00
1:55 AM,21.4,15.1,77,30.28,10.0,Calm,Calm,-,N/A,,Clear,0,2014-03-26 06:55:00
2:15 AM,20.7,15.1,79,30.28,10.0,Calm,Calm,-,N/A,,Clear,0,2014-03-26 07:15:00
2:35 AM,21.7,15.1,76,30.27,10.0,Calm,Calm,-,N/A,,Clear,0,2014-03-26 07:35:00
2:55 AM,21.4,14.9,76,30.27,10.0,Calm,Calm,-,N/A,,Clear,0,2014-03-26 07:55:00
3:15 AM,21.2,14.2,74,30.27,10.0,Calm,Calm,-,N/A,,Clear,0,2014-03-26 08:15:00
3:35 AM,19.8,13.1,75,30.28,10.0,Calm,Calm,-,N/A,,Clear,0,2014-03-26 08:35:00
3:55 AM,18.7,14.0,82,30.28,10.0,Calm,Calm,-,N/A,,Clear,0,2014-03-26 08:55:00
4:15 AM,19.2,16.0,87,30.28,10.0,Calm,Calm,-,N/A,,Clear,0,2014-03-26 09:15:00
4:35 AM,18.5,15.4,88,30.29,10.0,Calm,Calm,-,N/A,,Clear,0,2014-03-26 09:35:00
4:55 AM,18.3,13.6,82,30.30,10.0,Calm,Calm,-,N/A,,Clear,0,2014-03-26 09:55:00
5:15 AM,18.0,13.5,83,30.30,10.0,Calm,Calm,-,N/A,,Clear,0,2014-03-26 10:15:00
5:35 AM,17.4,12.7,82,30.32,10.0,Calm,Calm,-,N/A,,Clear,0,2014-03-26 10:35:00
5:55 AM,16.3,12.2,84,30.33,10.0,Calm,Calm,-,N/A,,Clear,0,2014-03-26 10:55:00
6:15 AM,17.2,14.2,88,30.34,10.0,Calm,Calm,-,N/A,,Clear,0,2014-03-26 11:15:00
6:35 AM,17.4,14.7,89,30.35,10.0,Calm,Calm,-,N/A,,Clear,0,2014-03-26 11:35:00
6:55 AM,17.6,14.2,86,30.35,10.0,Calm,Calm,-,N/A,,Clear,0,2014-03-26 11:55:00
7:15 AM,17.6,13.8,85,30.35,10.0,Calm,Calm,-,N/A,,Clear,0,2014-03-26 12:15:00
7:35 AM,19.9,16.2,85,30.35,10.0,Calm,Calm,-,N/A,,Clear,0,2014-03-26 12:35:00
7:55 AM,22.8,18.1,82,30.36,10.0,Calm,Calm,-,N/A,,Clear,0,2014-03-26 12:55:00
8:15 AM,25.5,17.6,72,30.37,10.0,Calm,Calm,-,N/A,,Clear,0,2014-03-26 13:15:00
8:35 AM,28.0,14.0,56,30.38,10.0,NNE,3.5,-,N/A,,Clear,30,2014-03-26 13:35:00
8:55 AM,28.9,12.7,51,30.38,10.0,ENE,4.6,-,N/A,,Clear,60,2014-03-26 13:55:00
9:15 AM,29.7,12.6,49,30.39,10.0,North,5.8,-,N/A,,Clear,350,2014-03-26 14:15:00
9:35 AM,30.4,12.6,48,30.39,10.0,NE,4.6,-,N/A,,Clear,50,2014-03-26 14:35:00
9:55 AM,31.3,12.6,46,30.39,10.0,East,4.6,-,N/A,,Clear,90,2014-03-26 14:55:00
10:15 AM,31.8,12.2,44,30.40,10.0,Calm,Calm,-,N/A,,Clear,0,2014-03-26 15:15:00
10:35 AM,32.0,11.5,43,30.40,10.0,East,6.9,-,N/A,,Clear,90,2014-03-26 15:35:00
10:55 AM,32.4,11.3,42,30.39,10.0,Calm,Calm,-,N/A,,Clear,0,2014-03-26 15:55:00
11:15 AM,33.8,11.3,39,30.39,10.0,Calm,Calm,-,N/A,,Clear,0,2014-03-26 16:15:00
11:35 AM,34.9,11.1,37,30.39,10.0,ESE,3.5,-,N/A,,Clear,120,2014-03-26 16:35:00
11:55 AM,35.4,11.1,37,30.38,10.0,Calm,Calm,-,N/A,,Clear,0,2014-03-26 16:55:00
12:15 PM,36.1,10.9,35,30.38,10.0,NNW,4.6,-,N/A,,Clear,330,2014-03-26 17:15:00
12:35 PM,37.0,11.1,34,30.37,10.0,NW,5.8,-,N/A,,Clear,310,2014-03-26 17:35:00
12:55 PM,37.6,11.5,34,30.37,10.0,North,4.6,-,N/A,,Clear,350,2014-03-26 17:55:00
1:15 PM,38.1,11.8,34,30.35,10.0,SE,3.5,-,N/A,,Clear,140,2014-03-26 18:15:00
1:35 PM,39.4,12.4,33,30.35,10.0,South,5.8,-,N/A,,Clear,190,2014-03-26 18:35:00
1:55 PM,39.9,12.2,32,30.34,10.0,SE,4.6,-,N/A,,Clear,140,2014-03-26 18:55:00
2:15 PM,40.1,10.2,29,30.33,10.0,Calm,Calm,-,N/A,,Clear,0,2014-03-26 19:15:00
2:35 PM,41.4,11.3,29,30.31,10.0,SSW,3.5,-,N/A,,Clear,200,2014-03-26 19:35:00
2:55 PM,42.1,12.4,30,30.29,10.0,South,3.5,-,N/A,,Clear,170,2014-03-26 19:55:00
3:15 PM,43.0,12.4,29,30.29,10.0,Calm,Calm,-,N/A,,Clear,0,2014-03-26 20:15:00
3:35 PM,43.2,11.8,28,30.29,10.0,SSW,5.8,-,N/A,,Clear,200,2014-03-26 20:35:00
3:55 PM,43.7,11.8,27,30.27,10.0,South,3.5,-,N/A,,Clear,180,2014-03-26 20:55:00
4:15 PM,43.7,11.8,27,30.26,10.0,SSE,4.6,-,N/A,,Clear,160,2014-03-26 21:15:00
4:35 PM,43.7,11.7,27,30.26,10.0,Calm,Calm,-,N/A,,Clear,0,2014-03-26 21:35:00
4:55 PM,44.1,11.5,27,30.25,10.0,Calm,Calm,-,N/A,,Clear,0,2014-03-26 21:55:00
5:35 PM,44.1,11.1,26,30.25,10.0,SSE,4.6,-,N/A,,Clear,160,2014-03-26 22:35:00
5:55 PM,43.9,10.4,26,30.25,10.0,South,4.6,-,N/A,,Clear,190,2014-03-26 22:55:00
6:15 PM,43.5,11.5,27,30.25,10.0,South,3.5,-,N/A,,Clear,180,2014-03-26 23:15:00
6:35 PM,42.4,12.4,29,30.25,10.0,Calm,Calm,-,N/A,,Clear,0,2014-03-26 23:35:00
6:55 PM,41.9,11.5,29,30.24,10.0,Calm,Calm,-,N/A,,Clear,0,2014-03-26 23:55:00
7:15 PM,40.1,12.0,32,30.23,10.0,Calm,Calm,-,N/A,,Clear,0,2014-03-27 00:15:00
7:35 PM,38.5,13.3,36,30.23,10.0,East,3.5,-,N/A,,Clear,80,2014-03-27 00:35:00
7:55 PM,37.2,14.0,39,30.22,10.0,East,4.6,-,N/A,,Clear,80,2014-03-27 00:55:00
8:35 PM,35.1,16.2,46,30.23,10.0,East,3.5,-,N/A,,Clear,90,2014-03-27 01:35:00
8:55 PM,34.7,16.7,48,30.23,10.0,Calm,Calm,-,N/A,,Clear,0,2014-03-27 01:55:00
9:15 PM,33.6,17.2,51,30.23,10.0,Calm,Calm,-,N/A,,Clear,0,2014-03-27 02:15:00
9:35 PM,32.7,18.1,55,30.23,10.0,Calm,Calm,-,N/A,,Clear,0,2014-03-27 02:35:00
9:55 PM,32.7,17.8,54,30.24,10.0,Calm,Calm,-,N/A,,Clear,0,2014-03-27 02:55:00
10:15 PM,32.0,18.9,58,30.23,10.0,Calm,Calm,-,N/A,,Clear,0,2014-03-27 03:15:00
10:35 PM,31.5,19.2,61,30.23,10.0,ENE,3.5,-,N/A,,Clear,70,2014-03-27 03:35:00
10:55 PM,30.6,19.6,64,30.22,10.0,East,4.6,-,N/A,,Clear,90,2014-03-27 03:55:00
11:15 PM,31.3,20.1,63,30.21,10.0,East,3.5,-,N/A,,Clear,90,2014-03-27 04:15:00
11:35 PM,31.5,20.8,65,30.21,10.0,Calm,Calm,-,N/A,,Clear,0,2014-03-27 04:35:00
11:55 PM,31.5,21.4,66,30.21,10.0,Calm,Calm,-,N/A,,Clear,0,2014-03-27 04:55:00